HOURLY OBS INDEX

001

Kimberley - north

DOONGAN ASA

Site: 001036
Alt: 383.5m
126km SSW of KALUMBURU


  Time     Wind        Temp  DP   Baro     Rain since   Rain past  Vis(m), Cloud(base in m), Weather
  local        km/h                         9am  last   hr   10m    
Tue 18:00  ------/--- --------  1017.8   ----  ----  ----  ----   ----- 
Tue 18:30  ------/--- --------  1018.2   ----  ----  ----  ----   ----- 
Tue 19:00  ------/--- --------  1018.6   ----  ----  ----  ----   ----- 
Tue 19:30  ------/--- --------  1018.8   ----  ----  ----  ----   ----- 
Tue 20:00  ------/--- --------  1019.0   ----  ----  ----  ----   ----- 
Tue 20:30  ------/--- --------  1019.0   ----  ----  ----  ----   ----- 
Tue 21:00  ------/--- --------  1019.1   ----  ----  ----  ----   ----- 
Tue 21:30  ------/--- --------  1019.3   ----  ----  ----  ----   ----- 
Tue 22:00  ------/--- --------  1019.5   ----  ----  ----  ----   ----- 
Tue 22:30  ------/--- --------  1019.5   ----  ----  ----  ----   ----- 
Tue 23:00  ------/--- --------  1019.4   ----  ----  ----  ----   ----- 
Tue 23:00  ------/--- --------  1019.4   ----  ----  ----  ----   ----- 

KALUMBURU

Site: 001019
Alt: 23.0m
0.0km ESE of KALUMBURU


  Time     Wind        Temp  DP   Baro     Rain since   Rain past  Vis(m), Cloud(base in m), Weather
  local        km/h                         9am  last   hr   10m    
Tue 18:00  ESE  6/  7  22.4 10.5  1015.7    0.0   0.0   0.0   0.0   ----- 
Tue 18:30    E  6/  7  21.4 11.1  1016.0    0.0   0.0   0.0   0.0   ----- 
Tue 19:00    C  0/  0  21.1 10.6  1016.4    0.0   0.0   0.0   0.0   ----- 
Tue 19:30    C  0/  0  19.3 10.8  1016.9    0.0   0.0   0.0   0.0   ----- 
Tue 20:00    C  0/  0  18.7 12.5  1017.0    0.0   0.0   0.0   0.0   ----- 
Tue 20:30    C  0/  0  18.1 12.5  1017.2    0.0   0.0   0.0   0.0   ----- 
Tue 21:00    C  0/  7  17.1 12.2  1017.4    0.0   0.0   0.0   0.0   ----- 
Tue 21:30    C  0/  0  16.8 12.5  1017.4    0.0   0.0   0.0   0.0   ----- 
Tue 22:00    C  0/  0  16.5 12.3  1017.2    0.0   0.0   0.0   0.0   ----- 
Tue 22:30   SE  6/  7  16.5 12.8  1017.0    0.0   0.0   0.0   0.0   ----- 
Tue 23:00    S  7/ 11  16.7 12.5  1017.2    0.0   0.0   0.0   0.0   ----- 
Tue 23:00    S  7/ 11  16.7 12.5  1017.2    0.0   0.0  ----   0.0   ----- 

TROUGHTON ISLAND

Site: 001007
Alt: 6.0m
80km NW of KALUMBURU


  Time     Wind        Temp  DP   Baro     Rain since   Rain past  Vis(m), Cloud(base in m), Weather
  local        km/h                         9am  last   hr   10m    
Tue 18:00  ENE 24/ 30  25.7 18.4  1016.0    0.0   0.0   0.0   0.0   ----- 
Tue 18:30  ENE 24/ 28  25.6 18.8  1016.3    0.0   0.0   0.0   0.0   ----- 
Tue 19:00  ENE 26/ 30  25.7 19.1  1016.6    0.0   0.0   0.0   0.0   ----- 
Tue 19:30    E 28/ 33  25.7 18.6  1017.0    0.0   0.0   0.0   0.0   ----- 
Tue 20:00    E 24/ 30  25.7 19.1  1017.3    0.0   0.0   0.0   0.0   ----- 
Tue 20:30    E 24/ 30  25.9 18.8  1017.2    0.0   0.0   0.0   0.0   ----- 
Tue 21:00    E 24/ 32  26.0 18.7  1017.3    0.0   0.0   0.0   0.0   ----- 
Tue 21:30    E 22/ 28  25.9 17.8  1017.4    0.0   0.0   0.0   0.0   ----- 
Tue 22:00    E 22/ 28  25.7 17.9  1017.3    0.0   0.0   0.0   0.0   ----- 
Tue 22:30  ESE 22/ 26  25.4 18.6  1017.1    0.0   0.0   0.0   0.0   ----- 
Tue 23:00  ESE 22/ 28  25.1 18.8  1017.1    0.0   0.0   0.0   0.0   ----- 
Tue 23:00  ESE 22/ 28  25.1 18.8  1017.1    0.0   0.0  ----   0.0   ----- 

TRUSCOTT

Site: 001020
Alt: 51.0m
36km NW of KALUMBURU


  Time     Wind        Temp  DP   Baro     Rain since   Rain past  Vis(m), Cloud(base in m), Weather
  local        km/h                         9am  last   hr   10m    
Tue 18:00    N  6/  6  23.2 16.0  1015.5    0.0   0.0   0.0   0.0   10000 
Tue 18:30   NE  7/  9  22.4 16.2  1015.9    0.0   0.0   0.0   0.0   10000 
Tue 19:00   NE  6/  7  22.2 17.1  1016.2    0.0   0.0   0.0   0.0   10000 
Tue 19:30    C  0/  0  22.1 16.4  1016.6    0.0   0.0   0.0   0.0   10000 
Tue 20:00    C  0/  0  21.4 16.1  1016.9    0.0   0.0   0.0   0.0   10000 
Tue 20:30    E  7/  9  21.5 16.7  1016.9    0.0   0.0   0.0   0.0   10000 
Tue 21:00    E  7/  9  21.0 16.2  1017.0    0.0   0.0   0.0   0.0   10000 
Tue 21:30  ESE  7/ 11  22.0 14.9  1017.2    0.0   0.0   0.0   0.0   10000 
Tue 22:00  ESE  9/ 13  22.4 14.0  1016.9    0.0   0.0   0.0   0.0   10000 
Tue 22:30  ESE  9/ 13  22.8 11.5  1016.7    0.0   0.0   0.0   0.0   10000 
Tue 23:00  ESE  9/ 13  23.0 10.8  1016.9    0.0   0.0   0.0   0.0   10000 
Tue 23:00  ESE  9/ 13  23.0 10.8  1016.9    0.0   0.0  ----   0.0   10000 

WYNDHAM AERO

Site: 001006
Alt: 3.8m
4km SE of WYNDHAM


  Time     Wind        Temp  DP   Baro     Rain since   Rain past  Vis(m), Cloud(base in m), Weather
  local        km/h                         9am  last   hr   10m    
Tue 18:00  ESE 13/ 15  24.3----  1016.1    0.0   0.0   0.0   0.0   ----- 
Tue 18:30    E 13/ 13  24.0----  1016.5    0.0   0.0   0.0   0.0   ----- 
Tue 19:00    E 15/ 17  24.8----  1016.9    0.0   0.0   0.0   0.0   ----- 
Tue 19:30    E 13/ 15  24.1----  1017.2    0.0   0.0   0.0   0.0   ----- 
Tue 20:00    E  9/ 11  23.1----  1017.5    0.0   0.0   0.0   0.0   ----- 
Tue 20:30    C  0/  0  23.0----  1017.6    0.0   0.0   0.0   0.0   ----- 
Tue 21:00  NNW  7/  9  21.7----  1017.7    0.0   0.0   0.0   0.0   ----- 
Tue 21:30    C  0/  0  20.9----  1017.6    0.0   0.0   0.0   0.0   ----- 
Tue 22:00    C  0/  0  18.7----  1017.9    0.0   0.0   0.0   0.0   ----- 
Tue 22:30  ESE  7/  9  18.0----  1017.9    0.0   0.0   0.0   0.0   ----- 
Tue 23:00    C  0/  6  17.6----  1017.9    0.0   0.0   0.0   0.0   ----- 
Tue 23:00    C  0/  6  17.6----  1017.9    0.0   0.0  ----   0.0   -----